Time;durP1;ratioP1;P1;durP2;ratioP2;P2;SDS_P1;SDS_P2;PMS_P1;PMS_P2;Temp;Humidity;BMP_temperature;BMP_pressure;BME280_temperature;BME280_humidity;BME280_pressure;Samples;Min_cycle;Max_cycle;Signal;HPM_P1;HPM_P2
2022/12/19 00:00:00;;;;;;;196.20;72.00;;;;;;;-8.06;85.94;102155.05;103067;1274;22476;-60
2022/12/19 00:02:33;;;;;;;198.50;73.60;;;;;;;-8.07;85.62;102148.48;103256;1285;24711;-60
2022/12/19 00:05:06;;;;;;;190.20;72.40;;;;;;;-8.09;85.49;102147.28;103026;1306;22630;-60
2022/12/19 00:07:38;;;;;;;198.10;75.60;;;;;;;-8.13;85.56;102146.23;102979;1283;24297;-60
2022/12/19 00:10:10;;;;;;;200.70;74.20;;;;;;;-8.13;85.67;102144.60;103112;1281;24711;-59
2022/12/19 00:12:42;;;;;;;209.50;74.20;;;;;;;-8.15;85.53;102143.58;103011;1281;22495;-60
2022/12/19 00:15:13;;;;;;;201.60;73.90;;;;;;;-8.19;85.38;102140.27;103037;1282;22473;-61
2022/12/19 00:17:45;;;;;;;201.70;75.40;;;;;;;-8.22;85.36;102130.48;103070;1305;22515;-61
2022/12/19 00:20:16;;;;;;;196.80;78.50;;;;;;;-8.24;85.43;102137.61;103063;1306;26242;-61
2022/12/19 00:22:48;;;;;;;192.50;74.90;;;;;;;-8.25;85.51;102141.84;103010;1282;22460;-60
2022/12/19 00:25:22;;;;;;;188.10;71.70;;;;;;;-8.27;85.42;102142.91;103041;1282;24347;-61
2022/12/19 00:27:53;;;;;;;194.20;71.80;;;;;;;-8.30;85.32;102145.43;103024;1282;26041;-61
2022/12/19 00:30:25;;;;;;;190.10;74.30;;;;;;;-8.30;85.39;102146.89;103034;1282;22520;-62
2022/12/19 00:32:56;;;;;;;198.30;75.50;;;;;;;-8.30;85.61;102143.96;103151;1306;24270;-61
2022/12/19 00:35:28;;;;;;;196.50;74.20;;;;;;;-8.33;85.35;102147.61;103049;1306;22547;-59
2022/12/19 00:37:59;;;;;;;203.80;78.70;;;;;;;-8.37;85.41;102138.59;103088;1282;22460;-61
2022/12/19 00:40:30;;;;;;;213.40;78.20;;;;;;;-8.35;85.66;102135.57;103015;1290;25335;-60
2022/12/19 00:43:02;;;;;;;203.20;78.00;;;;;;;-8.32;85.90;102130.46;103121;1306;25466;-60
2022/12/19 00:45:33;;;;;;;196.40;77.10;;;;;;;-8.30;85.79;102127.48;103025;1282;22819;-59
2022/12/19 00:48:05;;;;;;;193.60;72.30;;;;;;;-8.31;85.53;102120.25;103175;1306;24270;-60
2022/12/19 00:50:37;;;;;;;197.80;74.70;;;;;;;-8.34;85.25;102124.05;103103;1306;22460;-59
2022/12/19 00:53:09;;;;;;;203.00;73.30;;;;;;;-8.38;85.13;102129.69;102028;1276;1510975;-60
2022/12/19 00:55:41;;;;;;;203.20;75.00;;;;;;;-8.39;85.49;102127.54;103067;1276;22421;-58
2022/12/19 00:58:12;;;;;;;196.00;74.10;;;;;;;-8.36;85.66;102123.23;103068;1281;24307;-59
2022/12/19 01:00:43;;;;;;;207.50;72.40;;;;;;;-8.34;85.56;102115.65;103119;1298;23210;-61
2022/12/19 01:03:15;;;;;;;186.20;68.80;;;;;;;-8.35;85.36;102121.65;103111;1282;22452;-60
2022/12/19 01:05:46;;;;;;;180.80;67.70;;;;;;;-8.39;85.10;102127.21;103143;1282;24229;-62
2022/12/19 01:08:20;;;;;;;182.70;70.30;;;;;;;-8.43;85.33;102129.27;103108;1275;24428;-60
2022/12/19 01:10:54;;;;;;;176.70;67.40;;;;;;;-8.45;85.37;102130.81;103099;1281;23158;-60
2022/12/19 01:13:28;;;;;;;177.80;70.20;;;;;;;-8.46;85.34;102127.64;103041;1299;24418;-60
2022/12/19 01:16:04;;;;;;;184.40;69.80;;;;;;;-8.50;85.45;102124.17;103282;1282;25500;-61
2022/12/19 01:18:36;;;;;;;190.60;71.80;;;;;;;-8.50;85.54;102125.24;103169;1282;25504;-61
2022/12/19 01:21:13;;;;;;;189.00;71.10;;;;;;;-8.50;85.57;102122.09;103089;1289;22444;-60
2022/12/19 01:23:44;;;;;;;192.20;69.50;;;;;;;-8.49;85.50;102119.65;103125;1306;26539;-60
2022/12/19 01:26:16;;;;;;;187.80;69.80;;;;;;;-8.53;85.39;102116.81;103073;1282;24101;-60
2022/12/19 01:28:48;;;;;;;187.50;69.50;;;;;;;-8.53;85.61;102113.71;103167;1281;24257;-61
2022/12/19 01:31:19;;;;;;;197.30;71.80;;;;;;;-8.53;85.58;102107.13;103065;1281;22458;-58
2022/12/19 01:33:50;;;;;;;196.10;75.10;;;;;;;-8.51;85.79;102103.06;103068;1276;22497;-60
2022/12/19 01:36:22;;;;;;;195.90;74.20;;;;;;;-8.52;85.43;102090.95;103076;1305;22525;-59
2022/12/19 01:38:56;;;;;;;183.80;72.10;;;;;;;-8.53;85.35;102082.54;103027;1282;22514;-59
2022/12/19 01:41:28;;;;;;;204.40;73.20;;;;;;;-8.54;85.60;102066.58;103077;1282;22904;-61
2022/12/19 01:44:03;;;;;;;193.60;72.30;;;;;;;-8.51;85.74;102055.61;103045;1274;22478;-60
2022/12/19 01:46:38;;;;;;;185.60;68.90;;;;;;;-8.53;85.05;102050.74;103143;1281;21808;-60
2022/12/19 01:49:16;;;;;;;190.20;71.60;;;;;;;-8.59;85.04;102059.48;103203;1278;24899;-60
2022/12/19 01:51:52;;;;;;;191.80;71.70;;;;;;;-8.57;85.48;102057.87;103036;1289;23187;-60
2022/12/19 01:54:25;;;;;;;171.40;65.40;;;;;;;-8.56;85.35;102048.11;103047;1282;24173;-60
2022/12/19 01:56:58;;;;;;;191.60;68.10;;;;;;;-8.55;85.45;102039.20;103070;1275;22443;-61
2022/12/19 01:59:39;;;;;;;196.70;71.60;;;;;;;-8.56;85.35;102031.48;103211;1282;22564;-60
2022/12/19 02:02:14;;;;;;;195.40;68.70;;;;;;;-8.56;85.48;102025.52;103055;1282;22495;-61
2022/12/19 02:04:49;;;;;;;190.40;67.60;;;;;;;-8.57;85.23;102018.49;102917;1282;23222;-59
2022/12/19 02:07:24;;;;;;;188.00;67.10;;;;;;;-8.62;84.99;102015.66;103024;1282;24521;-58
2022/12/19 02:09:59;;;;;;;180.20;62.70;;;;;;;-8.67;84.94;102021.29;103077;1282;25559;-60
2022/12/19 02:12:33;;;;;;;180.90;66.80;;;;;;;-8.71;85.11;102024.90;103103;1274;22462;-59
2022/12/19 02:15:07;;;;;;;187.60;66.70;;;;;;;-8.72;85.29;102019.20;103202;1298;22163;-60
2022/12/19 02:17:47;;;;;;;166.10;63.80;;;;;;;-8.72;85.19;102021.83;103030;1306;25660;-60
2022/12/19 02:21:00;;;;;;;170.20;63.50;;;;;;;-8.77;85.23;102014.75;103060;1281;25276;-60
2022/12/19 02:23:58;;;;;;;176.40;66.20;;;;;;;-8.79;85.35;102006.04;103228;1275;25356;-60
2022/12/19 02:26:57;;;;;;;173.40;65.50;;;;;;;-8.82;85.39;101996.86;103385;1274;22446;-59
2022/12/19 02:29:56;;;;;;;188.10;67.30;;;;;;;-8.82;85.44;101994.84;103388;1274;22406;-60
2022/12/19 02:32:34;;;;;;;172.90;67.10;;;;;;;-8.82;85.72;101991.59;102886;1286;24431;-58
2022/12/19 02:35:14;;;;;;;178.90;70.60;;;;;;;-8.80;85.70;101989.77;102703;1280;23091;-60
2022/12/19 02:37:49;;;;;;;191.40;70.30;;;;;;;-8.77;85.68;101986.66;102700;1288;22478;-60
2022/12/19 02:40:26;;;;;;;179.90;70.10;;;;;;;-8.74;85.78;101978.92;102620;1288;24898;-59
2022/12/19 02:43:01;;;;;;;203.10;74.30;;;;;;;-8.72;85.65;101983.58;102598;1288;22475;-58
2022/12/19 02:45:37;;;;;;;191.90;69.50;;;;;;;-8.70;85.85;101984.50;102745;1284;25217;-61
2022/12/19 02:48:09;;;;;;;194.50;73.50;;;;;;;-8.68;85.79;101987.14;102760;1287;22490;-61
2022/12/19 02:50:43;;;;;;;186.90;71.90;;;;;;;-8.68;85.67;101982.11;102754;1311;21745;-59
2022/12/19 02:53:16;;;;;;;183.10;71.70;;;;;;;-8.68;85.72;101977.39;102749;1287;22476;-61
2022/12/19 02:55:54;;;;;;;186.90;68.80;;;;;;;-8.67;85.90;101967.97;102646;1289;24464;-60
2022/12/19 02:58:44;;;;;;;190.10;69.80;;;;;;;-8.68;85.84;101957.52;102726;1288;22497;-61
2022/12/19 03:01:26;;;;;;;195.00;68.30;;;;;;;-8.67;85.95;101949.02;102632;1287;22462;-60
2022/12/19 03:04:06;;;;;;;189.80;67.10;;;;;;;-8.65;86.17;101940.78;102638;1288;22429;-60
2022/12/19 03:06:43;;;;;;;174.10;65.30;;;;;;;-8.65;86.08;101937.80;102632;1310;21708;-60
2022/12/19 03:09:21;;;;;;;179.60;65.30;;;;;;;-8.64;86.22;101931.60;102611;1294;22532;-61
2022/12/19 03:12:03;;;;;;;164.60;62.20;;;;;;;-8.62;86.38;101932.69;103046;1306;24181;-60
2022/12/19 03:14:35;;;;;;;180.80;67.80;;;;;;;-8.63;86.40;101943.92;103069;1298;22490;-61
2022/12/19 03:17:09;;;;;;;162.60;61.40;;;;;;;-8.61;86.46;101942.53;102990;1275;22474;-60
2022/12/19 03:19:41;;;;;;;180.00;66.40;;;;;;;-8.59;86.59;101945.77;103000;1282;22444;-60
2022/12/19 03:22:13;;;;;;;166.20;62.50;;;;;;;-8.55;86.61;101944.54;102984;1282;22467;-60
2022/12/19 03:24:44;;;;;;;166.00;63.80;;;;;;;-8.52;86.67;101941.58;103148;1282;26633;-59
2022/12/19 03:27:21;;;;;;;169.00;62.80;;;;;;;-8.49;86.71;101925.38;103199;1283;25341;-60
2022/12/19 03:30:00;;;;;;;165.60;61.80;;;;;;;-8.45;86.73;101917.31;103123;1306;22525;-61
2022/12/19 03:32:34;;;;;;;176.20;62.60;;;;;;;-8.45;86.57;101912.38;103212;1275;24458;-60
2022/12/19 03:35:11;;;;;;;168.20;61.90;;;;;;;-8.42;86.68;101910.35;103052;1306;22473;-59
2022/12/19 03:37:44;;;;;;;164.40;61.70;;;;;;;-8.38;86.75;101902.01;103119;1274;25846;-60
2022/12/19 03:40:20;;;;;;;167.80;62.00;;;;;;;-8.37;86.67;101909.45;103076;1275;25390;-64
2022/12/19 03:43:11;;;;;;;171.00;63.10;;;;;;;-8.35;86.61;101917.10;103067;1282;23384;-60
2022/12/19 03:45:58;;;;;;;166.00;63.70;;;;;;;-8.35;86.57;101910.10;102974;1284;22507;-60
2022/12/19 03:48:38;;;;;;;174.90;60.80;;;;;;;-8.34;86.44;101907.16;103046;1281;22534;-58
2022/12/19 03:51:17;;;;;;;173.20;61.20;;;;;;;-8.35;86.49;101902.41;103267;1282;24282;-59
2022/12/19 03:53:59;;;;;;;176.80;63.20;;;;;;;-8.35;86.64;101898.02;103243;1305;22163;-60
2022/12/19 03:56:37;;;;;;;192.50;62.90;;;;;;;-8.34;86.71;101891.93;103349;1282;21761;-62
2022/12/19 03:59:11;;;;;;;174.50;66.70;;;;;;;-8.34;86.60;101889.64;103190;1289;23066;-62
2022/12/19 04:01:44;;;;;;;166.10;59.80;;;;;;;-8.32;86.65;101889.42;103106;1305;24290;-58
2022/12/19 04:04:17;;;;;;;170.90;63.70;;;;;;;-8.29;86.61;101885.45;103239;1304;25563;-60
2022/12/19 04:06:49;;;;;;;165.40;59.10;;;;;;;-8.30;86.47;101885.86;103247;1282;24296;-60
2022/12/19 04:09:23;;;;;;;158.70;60.80;;;;;;;-8.31;86.39;101885.92;103210;1292;21925;-60
2022/12/19 04:12:00;;;;;;;165.80;61.10;;;;;;;-8.32;86.38;101880.71;103234;1306;24462;-59
2022/12/19 04:14:35;;;;;;;157.50;57.50;;;;;;;-8.33;86.25;101888.87;103279;1282;22525;-60
2022/12/19 04:17:13;;;;;;;160.50;57.70;;;;;;;-8.34;86.36;101884.66;103191;1306;22456;-60
2022/12/19 04:19:51;;;;;;;156.50;55.00;;;;;;;-8.34;86.40;101881.32;103054;1282;23084;-60
2022/12/19 04:22:27;;;;;;;166.20;58.20;;;;;;;-8.33;86.40;101875.67;103181;1298;22512;-59
2022/12/19 04:25:06;;;;;;;150.00;52.50;;;;;;;-8.30;86.46;101869.21;103142;1305;25349;-66
2022/12/19 04:27:41;;;;;;;143.40;53.10;;;;;;;-8.29;86.38;101866.15;103053;1282;23345;-60
2022/12/19 04:30:16;;;;;;;145.20;51.20;;;;;;;-8.29;86.40;101863.55;103179;1283;25197;-61
2022/12/19 04:32:54;;;;;;;148.20;51.70;;;;;;;-8.30;86.33;101858.80;103145;1292;25551;-61
2022/12/19 04:35:29;;;;;;;152.10;50.80;;;;;;;-8.32;86.22;101860.23;103471;1281;24478;-61
2022/12/19 04:38:00;;;;;;;142.40;50.40;;;;;;;-8.34;86.22;101871.06;103191;1282;22550;-60
2022/12/19 04:40:32;;;;;;;135.40;50.00;;;;;;;-8.34;86.49;101872.52;103107;1306;22571;-60
2022/12/19 04:43:06;;;;;;;145.90;56.10;;;;;;;-8.31;86.60;101870.17;103196;1281;22525;-59
2022/12/19 04:45:40;;;;;;;140.30;51.80;;;;;;;-8.31;86.49;101871.52;103153;1274;25979;-60
2022/12/19 04:48:12;;;;;;;137.10;50.50;;;;;;;-8.30;86.54;101869.66;103130;1290;22489;-60
2022/12/19 04:50:43;;;;;;;137.40;51.40;;;;;;;-8.29;86.62;101869.30;103245;1302;22529;-60
2022/12/19 04:53:15;;;;;;;139.30;51.30;;;;;;;-8.26;86.71;101864.94;103154;1282;23143;-61
2022/12/19 04:55:47;;;;;;;157.80;56.90;;;;;;;-8.23;86.73;101860.06;103104;1282;25585;-61
2022/12/19 04:58:18;;;;;;;156.50;55.40;;;;;;;-8.18;86.78;101859.67;103327;1298;24338;-61
2022/12/19 05:00:50;;;;;;;154.90;53.90;;;;;;;-8.16;86.82;101855.85;103265;1275;22190;-58
2022/12/19 05:03:22;;;;;;;144.20;51.20;;;;;;;-8.14;86.76;101847.98;103335;1306;22471;-59
2022/12/19 05:05:53;;;;;;;136.00;48.10;;;;;;;-8.12;86.76;101848.82;103229;1306;22536;-61
2022/12/19 05:08:25;;;;;;;126.30;47.90;;;;;;;-8.12;86.68;101836.07;103074;1282;22470;-61
2022/12/19 05:11:01;;;;;;;141.70;47.10;;;;;;;-8.10;86.77;101832.88;103140;1298;24198;-59
2022/12/19 05:13:32;;;;;;;133.40;48.40;;;;;;;-8.10;86.71;101831.83;103178;1306;22557;-60
2022/12/19 05:16:07;;;;;;;130.70;49.00;;;;;;;-8.12;86.50;101835.85;103061;1281;25436;-64
2022/12/19 05:18:39;;;;;;;127.10;48.50;;;;;;;-8.14;86.46;101838.69;103197;1282;21770;-65
2022/12/19 05:21:11;;;;;;;143.80;51.30;;;;;;;-8.14;86.46;101845.94;103080;1282;23086;-60
2022/12/19 05:23:43;;;;;;;136.50;48.90;;;;;;;-8.16;86.39;101850.97;103244;1281;21709;-61
2022/12/19 05:26:15;;;;;;;137.20;48.90;;;;;;;-8.16;86.46;101850.05;103099;1282;24295;-58
2022/12/19 05:28:47;;;;;;;128.90;47.10;;;;;;;-8.16;86.42;101849.56;103052;1282;22457;-60
2022/12/19 05:31:21;;;;;;;139.20;47.90;;;;;;;-8.17;86.49;101849.48;103048;1282;22451;-60
2022/12/19 05:33:52;;;;;;;138.10;48.20;;;;;;;-8.18;86.35;101844.98;103255;1282;25459;-59
2022/12/19 05:36:23;;;;;;;125.50;42.50;;;;;;;-8.21;86.12;101837.48;103270;1282;25203;-59
2022/12/19 05:38:56;;;;;;;134.10;48.50;;;;;;;-8.24;86.20;101829.92;103113;1287;21736;-59
2022/12/19 05:41:27;;;;;;;128.70;45.60;;;;;;;-8.27;86.25;101823.84;103109;1282;22521;-60
2022/12/19 05:43:59;;;;;;;125.80;44.60;;;;;;;-8.28;86.21;101823.56;103128;1306;25254;-60
2022/12/19 05:46:30;;;;;;;118.40;39.40;;;;;;;-8.30;86.29;101815.14;103118;1306;21782;-56
2022/12/19 05:49:01;;;;;;;119.40;42.20;;;;;;;-8.32;86.38;101808.51;103027;1274;25346;-58
2022/12/19 05:51:33;;;;;;;122.60;41.90;;;;;;;-8.34;86.40;101817.96;103254;1282;22558;-60
2022/12/19 05:54:05;;;;;;;131.10;44.80;;;;;;;-8.35;86.50;101822.02;105298;1274;21929;-59
2022/12/19 05:56:37;;;;;;;135.60;47.20;;;;;;;-8.36;86.56;101820.41;102978;1281;21766;-58
2022/12/19 05:59:09;;;;;;;121.40;43.30;;;;;;;-8.33;86.69;101818.45;103129;1290;22546;-57
2022/12/19 06:01:40;;;;;;;113.70;44.30;;;;;;;-8.33;86.66;101821.64;103474;1274;22478;-59
2022/12/19 06:04:11;;;;;;;120.00;44.00;;;;;;;-8.32;86.64;101814.56;103053;1282;22611;-59
2022/12/19 06:06:43;;;;;;;126.00;42.10;;;;;;;-8.31;86.74;101808.80;103139;1282;24462;-57
2022/12/19 06:09:15;;;;;;;118.00;42.80;;;;;;;-8.32;86.74;101807.84;103111;1306;22496;-59
2022/12/19 06:11:47;;;;;;;120.50;42.20;;;;;;;-8.31;86.85;101805.27;103145;1299;22921;-59
2022/12/19 06:14:19;;;;;;;113.10;42.30;;;;;;;-8.30;86.80;101810.87;103185;1282;24731;-59
2022/12/19 06:16:50;;;;;;;110.70;40.60;;;;;;;-8.29;86.71;101814.48;103149;1282;22545;-58
2022/12/19 06:19:25;;;;;;;136.50;41.50;;;;;;;-8.27;86.76;101819.20;103140;1303;22524;-60
2022/12/19 06:21:56;;;;;;;130.90;46.10;;;;;;;-8.28;86.58;101831.41;103134;1282;24528;-60
2022/12/19 06:24:29;;;;;;;126.30;44.70;;;;;;;-8.28;86.65;101831.50;103122;1284;24302;-60
2022/12/19 06:27:00;;;;;;;116.80;43.90;;;;;;;-8.28;86.66;101833.80;103157;1305;22850;-58
2022/12/19 06:29:32;;;;;;;124.80;44.20;;;;;;;-8.29;86.70;101840.58;103324;1282;22475;-59
2022/12/19 06:32:04;;;;;;;125.20;45.50;;;;;;;-8.29;86.77;101838.03;103324;1306;22996;-59
2022/12/19 06:34:36;;;;;;;127.50;45.50;;;;;;;-8.27;86.85;101839.44;103090;1304;22486;-59
2022/12/19 06:37:08;;;;;;;120.10;43.20;;;;;;;-8.23;87.01;101832.27;103043;1306;22537;-58
2022/12/19 06:39:39;;;;;;;119.50;45.30;;;;;;;-8.18;87.07;101827.41;103064;1282;21793;-57
2022/12/19 06:42:23;;;;;;;132.40;45.50;;;;;;;-8.16;87.16;101831.47;103080;1274;24419;-57
2022/12/19 06:44:56;;;;;;;120.80;43.20;;;;;;;-8.14;87.22;101824.85;103073;1283;22892;-58
2022/12/19 06:47:28;;;;;;;110.90;42.10;;;;;;;-8.10;87.30;101822.77;103553;1305;21917;-58
2022/12/19 06:49:59;;;;;;;121.10;41.30;;;;;;;-8.08;87.16;101825.75;103103;1304;24352;-57
2022/12/19 06:52:30;;;;;;;104.20;37.70;;;;;;;-8.04;87.29;101826.02;103132;1282;22474;-57
2022/12/19 06:55:02;;;;;;;106.20;38.00;;;;;;;-8.01;87.17;101820.57;103139;1282;24269;-57
2022/12/19 06:57:34;;;;;;;110.50;37.60;;;;;;;-8.01;87.13;101818.25;103079;1282;25319;-58
2022/12/19 07:00:07;;;;;;;105.50;39.00;;;;;;;-7.99;87.23;101806.34;103185;1298;22446;-58
2022/12/19 07:02:39;;;;;;;107.30;40.70;;;;;;;-7.96;87.23;101807.71;103299;1306;22517;-57
2022/12/19 07:05:12;;;;;;;111.30;34.50;;;;;;;-7.93;87.21;101811.21;103177;1282;24158;-62
2022/12/19 07:07:44;;;;;;;107.00;38.70;;;;;;;-7.92;87.00;101812.77;103084;1280;24720;-58
2022/12/19 07:10:17;;;;;;;116.30;39.90;;;;;;;-7.91;87.10;101810.23;103298;1282;24349;-58
2022/12/19 07:12:49;;;;;;;101.90;35.40;;;;;;;-7.89;87.13;101811.70;104089;1282;22690;-60
2022/12/19 07:15:20;;;;;;;109.90;39.80;;;;;;;-7.90;86.95;101805.89;103643;1282;24291;-58
2022/12/19 07:17:52;;;;;;;106.30;38.20;;;;;;;-7.91;86.94;101810.45;103479;1306;24406;-59
2022/12/19 07:20:24;;;;;;;121.50;43.10;;;;;;;-7.88;87.16;101805.15;103393;1281;22568;-59
2022/12/19 07:22:55;;;;;;;111.30;37.80;;;;;;;-7.84;87.31;101801.67;103199;1305;24478;-59
2022/12/19 07:25:27;;;;;;;107.90;37.30;;;;;;;-7.80;87.17;101804.52;103151;1282;22586;-60
2022/12/19 07:27:58;;;;;;;104.40;38.40;;;;;;;-7.77;87.16;101797.03;103299;1282;22526;-60
2022/12/19 07:30:30;;;;;;;110.80;39.00;;;;;;;-7.78;87.15;101787.88;103363;1306;25307;-59
2022/12/19 07:33:02;;;;;;;114.10;42.20;;;;;;;-7.76;87.34;101784.33;103313;1306;22498;-60
2022/12/19 07:35:34;;;;;;;107.70;42.60;;;;;;;-7.73;87.40;101777.20;103141;1304;22477;-58
2022/12/19 07:38:08;;;;;;;125.90;41.00;;;;;;;-7.69;87.50;101779.08;103261;1282;25030;-60
2022/12/19 07:40:41;;;;;;;105.90;39.80;;;;;;;-7.65;87.60;101783.06;103223;1305;22503;-59
2022/12/19 07:43:12;;;;;;;103.80;39.70;;;;;;;-7.61;87.71;101777.52;103217;1275;25640;-58
2022/12/19 07:45:46;;;;;;;106.60;37.90;;;;;;;-7.56;87.76;101779.20;103221;1282;26156;-60
2022/12/19 07:48:17;;;;;;;110.90;40.00;;;;;;;-7.50;87.83;101782.55;103257;1297;22507;-60
2022/12/19 07:50:49;;;;;;;105.90;40.20;;;;;;;-7.46;88.02;101783.20;103323;1305;22465;-58
2022/12/19 07:53:20;;;;;;;101.40;37.40;;;;;;;-7.40;88.11;101777.55;103029;1274;22526;-59
2022/12/19 07:55:54;;;;;;;94.10;34.30;;;;;;;-7.35;88.14;101776.30;103360;1282;25932;-59
2022/12/19 07:58:26;;;;;;;103.40;34.60;;;;;;;-7.30;88.25;101775.59;103445;1282;25156;-60
2022/12/19 08:00:59;;;;;;;95.70;34.40;;;;;;;-7.25;88.26;101768.77;103540;1305;22502;-61
2022/12/19 08:03:35;;;;;;;99.80;35.40;;;;;;;-7.19;88.41;101766.85;103444;1306;21682;-59
2022/12/19 08:06:07;;;;;;;87.90;31.80;;;;;;;-7.13;88.40;101762.63;103509;1303;21864;-60
2022/12/19 08:08:39;;;;;;;92.90;31.30;;;;;;;-7.06;88.57;101771.52;103497;1282;25601;-60
2022/12/19 08:11:16;;;;;;;91.50;34.20;;;;;;;-7.00;88.60;101778.42;103510;1305;22519;-60
2022/12/19 08:13:49;;;;;;;82.60;29.10;;;;;;;-6.93;88.70;101777.26;103444;1282;22507;-59
2022/12/19 08:16:20;;;;;;;96.80;34.40;;;;;;;-6.86;88.73;101765.63;103489;1297;21762;-59
2022/12/19 08:18:52;;;;;;;92.20;33.60;;;;;;;-6.79;88.76;101766.54;103682;1278;24261;-59
2022/12/19 08:21:23;;;;;;;93.00;33.20;;;;;;;-6.72;88.77;101769.83;103503;1282;25625;-61
2022/12/19 08:23:55;;;;;;;100.80;33.80;;;;;;;-6.67;88.74;101762.23;103601;1306;22698;-60
2022/12/19 08:26:27;;;;;;;94.50;33.00;;;;;;;-6.59;88.81;101762.92;103541;1304;22508;-61
2022/12/19 08:29:00;;;;;;;95.90;31.10;;;;;;;-6.50;88.88;101760.71;103492;1306;22708;-59
2022/12/19 08:31:31;;;;;;;93.00;32.90;;;;;;;-6.42;89.03;101764.70;103543;1282;24267;-60
2022/12/19 08:34:02;;;;;;;84.40;30.80;;;;;;;-6.34;89.12;101765.09;103466;1281;22520;-58
2022/12/19 08:36:34;;;;;;;87.50;29.20;;;;;;;-6.24;89.26;101752.89;103495;1274;22490;-61
2022/12/19 08:39:05;;;;;;;83.20;29.70;;;;;;;-6.17;89.19;101744.16;103552;1284;25507;-60
2022/12/19 08:41:37;;;;;;;93.00;34.50;;;;;;;-6.09;89.26;101743.45;103513;1298;22591;-60
2022/12/19 08:44:12;;;;;;;102.00;34.20;;;;;;;-6.03;89.27;101743.48;103529;1275;25276;-59
2022/12/19 08:46:44;;;;;;;83.40;31.00;;;;;;;-5.95;89.36;101738.64;103459;1304;22711;-60
2022/12/19 08:49:16;;;;;;;91.00;30.20;;;;;;;-5.89;89.35;101726.98;103532;1282;22740;-60
2022/12/19 08:51:48;;;;;;;83.60;31.50;;;;;;;-5.83;89.36;101729.75;103502;1278;22549;-60
2022/12/19 08:54:20;;;;;;;90.70;35.40;;;;;;;-5.78;89.35;101730.47;103484;1282;22686;-61
2022/12/19 08:56:51;;;;;;;82.40;32.80;;;;;;;-5.73;89.27;101726.98;103484;1299;22853;-58
2022/12/19 08:59:23;;;;;;;86.80;32.70;;;;;;;-5.69;89.19;101716.95;103588;1306;22575;-60
2022/12/19 09:02:01;;;;;;;87.90;31.50;;;;;;;-5.65;89.13;101716.55;103543;1299;24442;-59
2022/12/19 09:04:33;;;;;;;94.50;32.60;;;;;;;-5.60;89.24;101718.90;103539;1282;21973;-61
2022/12/19 09:07:04;;;;;;;83.20;31.20;;;;;;;-5.55;89.21;101717.43;103428;1281;25521;-61
2022/12/19 09:09:36;;;;;;;88.60;33.50;;;;;;;-5.51;89.13;101719.48;103484;1275;25344;-59
2022/12/19 09:12:07;;;;;;;87.00;31.00;;;;;;;-5.46;89.21;101719.65;103558;1305;22584;-60
2022/12/19 09:14:39;;;;;;;94.50;34.70;;;;;;;-5.40;89.26;101712.45;103584;1306;22661;-61
2022/12/19 09:17:11;;;;;;;85.20;30.50;;;;;;;-5.34;89.26;101709.09;103524;1305;22628;-59
2022/12/19 09:19:42;;;;;;;75.50;27.60;;;;;;;-5.28;89.32;101706.51;103628;1292;22566;-61
2022/12/19 09:22:15;;;;;;;85.40;31.20;;;;;;;-5.22;89.34;101706.72;103511;1301;22605;-61
2022/12/19 09:24:47;;;;;;;81.60;29.70;;;;;;;-5.16;89.37;101703.10;103517;1281;22663;-60
2022/12/19 09:27:19;;;;;;;76.20;27.40;;;;;;;-5.09;89.42;101693.14;103480;1305;25297;-61
2022/12/19 09:29:51;;;;;;;83.70;27.50;;;;;;;-5.02;89.48;101687.71;103520;1297;22645;-61
2022/12/19 09:32:22;;;;;;;90.60;33.40;;;;;;;-4.94;89.51;101689.29;103422;1278;25604;-60
2022/12/19 09:34:54;;;;;;;79.00;28.20;;;;;;;-4.89;89.49;101684.02;103514;1305;24324;-60
2022/12/19 09:37:25;;;;;;;85.90;29.70;;;;;;;-4.82;89.47;101679.24;103528;1275;24266;-60
2022/12/19 09:39:57;;;;;;;80.90;27.80;;;;;;;-4.76;89.47;101672.61;103586;1298;22633;-59
2022/12/19 09:42:50;;;;;;;79.40;29.90;;;;;;;-4.68;89.57;101673.09;103365;1282;25682;-59
2022/12/19 09:45:40;;;;;;;82.70;29.90;;;;;;;-4.60;89.51;101670.33;103501;1291;26838;-61
2022/12/19 09:48:15;;;;;;;75.20;28.00;;;;;;;-4.53;89.55;101667.65;103634;1282;24286;-60
2022/12/19 09:50:54;;;;;;;80.90;30.40;;;;;;;-4.45;89.66;101662.50;103412;1306;24266;-60
2022/12/19 09:53:37;;;;;;;78.10;29.40;;;;;;;-4.36;89.62;101658.34;103636;1298;23089;-59
2022/12/19 09:56:15;;;;;;;85.40;30.70;;;;;;;-4.27;89.72;101646.92;103478;1282;22612;-60
2022/12/19 09:58:52;;;;;;;84.40;33.20;;;;;;;-4.19;89.72;101646.71;103486;1281;22574;-59
2022/12/19 10:01:31;;;;;;;94.90;32.30;;;;;;;-4.12;89.66;101640.13;103562;1282;27730;-59
2022/12/19 10:04:09;;;;;;;77.30;31.20;;;;;;;-4.04;89.65;101640.90;103427;1282;22678;-60
2022/12/19 10:06:41;;;;;;;86.00;29.60;;;;;;;-3.97;89.56;101637.20;103385;1282;22580;-60
2022/12/19 10:09:16;;;;;;;77.40;28.20;;;;;;;-3.90;89.62;101623.68;103422;1282;22526;-60
2022/12/19 10:12:00;;;;;;;73.90;28.30;;;;;;;-3.82;89.66;101635.19;103441;1306;23346;-61
2022/12/19 10:14:51;;;;;;;82.70;28.80;;;;;;;-3.75;89.66;101633.07;103520;1306;22542;-58
2022/12/19 10:17:30;;;;;;;64.40;24.10;;;;;;;-3.65;89.81;101630.73;103446;1282;22534;-58
2022/12/19 10:20:24;;;;;;;65.40;25.90;;;;;;;-3.56;89.84;101623.19;103391;1274;22686;-58
2022/12/19 10:23:07;;;;;;;77.00;26.80;;;;;;;-3.48;89.79;101620.04;103586;1275;24304;-58
2022/12/19 10:25:55;;;;;;;73.90;26.10;;;;;;;-3.41;89.74;101613.30;103433;1306;22490;-59
2022/12/19 10:28:51;;;;;;;71.00;25.20;;;;;;;-3.34;89.63;101600.74;103372;1305;22732;-59
2022/12/19 10:31:30;;;;;;;66.00;23.20;;;;;;;-3.28;89.66;101592.24;103492;1303;22532;-59
2022/12/19 10:34:08;;;;;;;66.50;23.90;;;;;;;-3.21;89.57;101596.14;103383;1306;22535;-60
2022/12/19 10:36:44;;;;;;;68.70;24.60;;;;;;;-3.14;89.61;101587.12;103398;1306;22670;-61
2022/12/19 10:39:23;;;;;;;68.50;24.50;;;;;;;-3.06;89.52;101583.33;103532;1306;23060;-61
2022/12/19 10:41:59;;;;;;;65.70;23.20;;;;;;;-3.00;89.38;101583.45;103418;1306;26070;-59
2022/12/19 10:44:33;;;;;;;59.90;20.50;;;;;;;-2.93;89.36;101588.55;103556;1306;24130;-59
2022/12/19 10:47:05;;;;;;;59.90;20.30;;;;;;;-2.87;89.27;101584.33;103429;1288;26011;-59
2022/12/19 10:49:37;;;;;;;54.40;21.70;;;;;;;-2.79;89.30;101578.10;103463;1282;22646;-60
2022/12/19 10:52:11;;;;;;;55.10;21.60;;;;;;;-2.71;89.29;101580.55;103386;1298;22611;-59
2022/12/19 10:54:44;;;;;;;55.00;21.30;;;;;;;-2.62;89.21;101580.65;103417;1303;22540;-59
2022/12/19 10:57:25;;;;;;;60.00;23.40;;;;;;;-2.54;89.30;101576.08;103397;1284;23122;-60
2022/12/19 11:00:02;;;;;;;56.30;22.30;;;;;;;-2.47;89.20;101572.00;103550;1305;22515;-59
2022/12/19 11:02:41;;;;;;;57.30;22.70;;;;;;;-2.38;89.15;101571.26;103593;1281;22536;-61
2022/12/19 11:05:25;;;;;;;59.10;22.70;;;;;;;-2.32;89.20;101570.27;103439;1278;22481;-59
2022/12/19 11:08:17;;;;;;;68.90;24.30;;;;;;;-2.24;89.15;101570.05;103401;1288;22657;-58
2022/12/19 11:10:51;;;;;;;64.10;26.40;;;;;;;-2.17;89.13;101565.04;103603;1305;25594;-59
2022/12/19 11:13:27;;;;;;;66.30;26.40;;;;;;;-2.12;89.02;101558.34;103442;1306;22664;-59
2022/12/19 11:16:00;;;;;;;63.00;22.50;;;;;;;-2.03;88.95;101557.73;103297;1305;25488;-61
2022/12/19 11:18:39;;;;;;;63.50;24.40;;;;;;;-1.95;89.01;101550.84;103333;1282;24322;-58
2022/12/19 11:21:18;;;;;;;55.70;22.70;;;;;;;-1.88;88.88;101548.46;103375;1303;24406;-60
2022/12/19 11:23:54;;;;;;;56.90;21.60;;;;;;;-1.82;88.89;101539.42;103364;1281;25649;-59
2022/12/19 11:26:35;;;;;;;50.30;19.10;;;;;;;-1.77;88.59;101536.32;103383;1305;25587;-58
2022/12/19 11:29:20;;;;;;;52.60;17.70;;;;;;;-1.68;88.43;101526.78;103453;1306;24406;-60